sensor_id;sensor_type;location;lat;lon;timestamp;P1;durP1;ratioP1;P2;durP2;ratioP2
17197;SDS011;8715;51.010;6.812;2022-09-03T00:01:19;552.47;;;531.45;;
17197;SDS011;8715;51.010;6.812;2022-09-03T00:03:54;477.35;;;458.85;;
17197;SDS011;8715;51.010;6.812;2022-09-03T00:06:24;555.33;;;534.33;;
17197;SDS011;8715;51.010;6.812;2022-09-03T00:09:02;483.50;;;464.73;;
17197;SDS011;8715;51.010;6.812;2022-09-03T00:11:34;551.92;;;531.05;;
17197;SDS011;8715;51.010;6.812;2022-09-03T00:14:04;484.48;;;465.92;;
17197;SDS011;8715;51.010;6.812;2022-09-03T00:17:14;484.50;;;465.80;;
17197;SDS011;8715;51.010;6.812;2022-09-03T00:19:23;488.15;;;468.85;;
17197;SDS011;8715;51.010;6.812;2022-09-03T00:21:53;499.05;;;479.52;;
17197;SDS011;8715;51.010;6.812;2022-09-03T00:24:22;500.88;;;481.65;;
17197;SDS011;8715;51.010;6.812;2022-09-03T00:26:51;479.20;;;460.80;;
17197;SDS011;8715;51.010;6.812;2022-09-03T00:29:23;486.60;;;467.73;;
17197;SDS011;8715;51.010;6.812;2022-09-03T00:31:53;482.48;;;463.67;;
17197;SDS011;8715;51.010;6.812;2022-09-03T00:34:41;493.40;;;474.52;;
17197;SDS011;8715;51.010;6.812;2022-09-03T00:37:08;494.45;;;474.90;;
17197;SDS011;8715;51.010;6.812;2022-09-03T00:39:34;492.92;;;474.15;;
17197;SDS011;8715;51.010;6.812;2022-09-03T00:47:48;480.88;;;462.05;;
17197;SDS011;8715;51.010;6.812;2022-09-03T00:53:21;479.33;;;460.58;;
17197;SDS011;8715;51.010;6.812;2022-09-03T01:07:17;468.88;;;449.95;;
17197;SDS011;8715;51.010;6.812;2022-09-03T01:15:16;497.50;;;478.65;;
17197;SDS011;8715;51.010;6.812;2022-09-03T01:20:34;483.50;;;465.05;;
17197;SDS011;8715;51.010;6.812;2022-09-03T01:26:05;469.70;;;451.20;;
17197;SDS011;8715;51.010;6.812;2022-09-03T01:28:43;474.58;;;456.25;;
17197;SDS011;8715;51.010;6.812;2022-09-03T01:31:28;468.77;;;450.63;;
17197;SDS011;8715;51.010;6.812;2022-09-03T01:39:35;537.65;;;517.17;;
17197;SDS011;8715;51.010;6.812;2022-09-03T01:48:03;538.20;;;517.88;;
17197;SDS011;8715;51.010;6.812;2022-09-03T01:50:55;520.92;;;500.90;;
17197;SDS011;8715;51.010;6.812;2022-09-03T01:56:16;462.27;;;444.50;;
17197;SDS011;8715;51.010;6.812;2022-09-03T02:01:33;470.17;;;452.15;;
17197;SDS011;8715;51.010;6.812;2022-09-03T02:04:11;473.45;;;455.52;;
17197;SDS011;8715;51.010;6.812;2022-09-03T02:06:38;529.13;;;508.40;;
17197;SDS011;8715;51.010;6.812;2022-09-03T02:09:04;473.33;;;455.35;;
17197;SDS011;8715;51.010;6.812;2022-09-03T02:11:29;476.83;;;458.73;;
17197;SDS011;8715;51.010;6.812;2022-09-03T02:13:55;479.95;;;461.02;;
17197;SDS011;8715;51.010;6.812;2022-09-03T02:16:24;530.08;;;509.92;;
17197;SDS011;8715;51.010;6.812;2022-09-03T02:18:56;463.70;;;446.00;;
17197;SDS011;8715;51.010;6.812;2022-09-03T02:21:25;461.20;;;443.40;;
17197;SDS011;8715;51.010;6.812;2022-09-03T02:23:52;470.48;;;452.13;;
17197;SDS011;8715;51.010;6.812;2022-09-03T02:26:19;534.17;;;513.22;;
17197;SDS011;8715;51.010;6.812;2022-09-03T02:28:46;474.67;;;456.60;;
17197;SDS011;8715;51.010;6.812;2022-09-03T02:31:12;462.80;;;445.00;;
17197;SDS011;8715;51.010;6.812;2022-09-03T02:33:38;463.48;;;445.20;;
17197;SDS011;8715;51.010;6.812;2022-09-03T02:36:06;473.80;;;455.88;;
17197;SDS011;8715;51.010;6.812;2022-09-03T02:38:33;475.58;;;457.60;;
17197;SDS011;8715;51.010;6.812;2022-09-03T02:40:59;463.45;;;445.33;;
17197;SDS011;8715;51.010;6.812;2022-09-03T02:46:15;446.08;;;429.08;;
17197;SDS011;8715;51.010;6.812;2022-09-03T02:48:42;464.80;;;446.95;;
17197;SDS011;8715;51.010;6.812;2022-09-03T02:51:08;509.50;;;489.90;;
17197;SDS011;8715;51.010;6.812;2022-09-03T02:53:33;466.92;;;448.20;;
17197;SDS011;8715;51.010;6.812;2022-09-03T02:56:01;486.27;;;467.17;;
17197;SDS011;8715;51.010;6.812;2022-09-03T02:58:27;461.75;;;443.90;;
17197;SDS011;8715;51.010;6.812;2022-09-03T03:00:53;470.85;;;452.38;;
17197;SDS011;8715;51.010;6.812;2022-09-03T03:03:19;456.85;;;439.00;;
17197;SDS011;8715;51.010;6.812;2022-09-03T03:08:13;475.05;;;456.55;;
17197;SDS011;8715;51.010;6.812;2022-09-03T03:10:45;450.58;;;433.33;;
17197;SDS011;8715;51.010;6.812;2022-09-03T03:13:11;517.58;;;498.08;;
17197;SDS011;8715;51.010;6.812;2022-09-03T03:15:37;455.10;;;437.67;;
17197;SDS011;8715;51.010;6.812;2022-09-03T03:18:02;461.33;;;443.60;;
17197;SDS011;8715;51.010;6.812;2022-09-03T03:20:28;485.67;;;466.83;;
17197;SDS011;8715;51.010;6.812;2022-09-03T03:22:54;470.08;;;451.95;;
17197;SDS011;8715;51.010;6.812;2022-09-03T03:25:19;454.15;;;436.17;;
17197;SDS011;8715;51.010;6.812;2022-09-03T03:27:45;436.63;;;419.77;;
17197;SDS011;8715;51.010;6.812;2022-09-03T03:30:10;451.00;;;433.75;;
17197;SDS011;8715;51.010;6.812;2022-09-03T03:32:36;452.67;;;435.27;;
17197;SDS011;8715;51.010;6.812;2022-09-03T03:35:02;458.95;;;440.73;;
17197;SDS011;8715;51.010;6.812;2022-09-03T03:37:27;439.27;;;421.13;;
17197;SDS011;8715;51.010;6.812;2022-09-03T03:39:53;445.43;;;428.13;;
17197;SDS011;8715;51.010;6.812;2022-09-03T03:42:18;468.92;;;451.17;;
17197;SDS011;8715;51.010;6.812;2022-09-03T03:44:43;437.40;;;420.53;;
17197;SDS011;8715;51.010;6.812;2022-09-03T03:47:09;445.17;;;428.05;;
17197;SDS011;8715;51.010;6.812;2022-09-03T03:49:34;437.73;;;420.60;;
17197;SDS011;8715;51.010;6.812;2022-09-03T03:51:59;454.47;;;436.30;;
17197;SDS011;8715;51.010;6.812;2022-09-03T03:54:27;435.67;;;418.85;;
17197;SDS011;8715;51.010;6.812;2022-09-03T03:56:52;497.02;;;478.10;;
17197;SDS011;8715;51.010;6.812;2022-09-03T03:59:17;420.92;;;404.73;;
17197;SDS011;8715;51.010;6.812;2022-09-03T04:01:43;502.40;;;483.33;;
17197;SDS011;8715;51.010;6.812;2022-09-03T04:04:08;447.77;;;430.73;;
17197;SDS011;8715;51.010;6.812;2022-09-03T04:06:33;431.73;;;414.97;;
17197;SDS011;8715;51.010;6.812;2022-09-03T04:08:59;447.57;;;430.30;;
17197;SDS011;8715;51.010;6.812;2022-09-03T04:11:24;433.98;;;416.90;;
17197;SDS011;8715;51.010;6.812;2022-09-03T04:13:50;438.27;;;421.10;;
17197;SDS011;8715;51.010;6.812;2022-09-03T04:16:17;427.17;;;410.58;;
17197;SDS011;8715;51.010;6.812;2022-09-03T04:18:44;441.27;;;424.30;;
17197;SDS011;8715;51.010;6.812;2022-09-03T04:21:10;425.92;;;409.70;;
17197;SDS011;8715;51.010;6.812;2022-09-03T04:23:38;429.35;;;412.88;;
17197;SDS011;8715;51.010;6.812;2022-09-03T04:26:05;507.90;;;488.52;;
17197;SDS011;8715;51.010;6.812;2022-09-03T04:28:31;422.75;;;406.02;;
17197;SDS011;8715;51.010;6.812;2022-09-03T04:31:00;489.65;;;471.02;;
17197;SDS011;8715;51.010;6.812;2022-09-03T04:33:27;439.05;;;421.67;;
17197;SDS011;8715;51.010;6.812;2022-09-03T04:35:52;434.20;;;417.15;;
17197;SDS011;8715;51.010;6.812;2022-09-03T04:38:28;443.73;;;426.63;;
17197;SDS011;8715;51.010;6.812;2022-09-03T04:40:53;443.48;;;426.40;;
17197;SDS011;8715;51.010;6.812;2022-09-03T04:43:18;504.77;;;485.33;;
17197;SDS011;8715;51.010;6.812;2022-09-03T04:45:44;422.27;;;405.60;;
17197;SDS011;8715;51.010;6.812;2022-09-03T04:48:09;443.58;;;426.42;;
17197;SDS011;8715;51.010;6.812;2022-09-03T04:50:35;439.70;;;423.02;;
17197;SDS011;8715;51.010;6.812;2022-09-03T04:53:02;426.65;;;409.85;;
17197;SDS011;8715;51.010;6.812;2022-09-03T04:55:35;431.63;;;414.95;;
17197;SDS011;8715;51.010;6.812;2022-09-03T04:58:01;429.83;;;412.77;;
17197;SDS011;8715;51.010;6.812;2022-09-03T05:00:27;436.02;;;419.10;;
17197;SDS011;8715;51.010;6.812;2022-09-03T05:02:53;458.42;;;441.02;;
17197;SDS011;8715;51.010;6.812;2022-09-03T05:05:18;443.63;;;426.33;;
17197;SDS011;8715;51.010;6.812;2022-09-03T05:07:44;527.30;;;506.75;;
17197;SDS011;8715;51.010;6.812;2022-09-03T05:10:10;539.20;;;518.55;;
17197;SDS011;8715;51.010;6.812;2022-09-03T05:12:40;481.10;;;462.35;;
17197;SDS011;8715;51.010;6.812;2022-09-03T05:15:05;483.75;;;465.02;;
17197;SDS011;8715;51.010;6.812;2022-09-03T05:17:31;502.92;;;483.42;;
17197;SDS011;8715;51.010;6.812;2022-09-03T05:19:57;579.00;;;557.08;;
17197;SDS011;8715;51.010;6.812;2022-09-03T05:22:22;518.58;;;498.85;;
17197;SDS011;8715;51.010;6.812;2022-09-03T05:24:48;532.22;;;511.33;;
17197;SDS011;8715;51.010;6.812;2022-09-03T05:27:14;546.13;;;525.17;;
17197;SDS011;8715;51.010;6.812;2022-09-03T05:29:42;572.55;;;550.22;;
17197;SDS011;8715;51.010;6.812;2022-09-03T05:32:08;617.78;;;594.00;;
17197;SDS011;8715;51.010;6.812;2022-09-03T05:34:33;576.30;;;553.85;;
17197;SDS011;8715;51.010;6.812;2022-09-03T05:36:59;626.83;;;602.27;;
17197;SDS011;8715;51.010;6.812;2022-09-03T05:39:24;639.40;;;613.72;;
17197;SDS011;8715;51.010;6.812;2022-09-03T05:41:49;648.30;;;622.60;;
17197;SDS011;8715;51.010;6.812;2022-09-03T05:44:16;604.42;;;580.80;;
17197;SDS011;8715;51.010;6.812;2022-09-03T05:46:42;596.15;;;572.78;;
17197;SDS011;8715;51.010;6.812;2022-09-03T05:49:07;610.00;;;583.90;;
17197;SDS011;8715;51.010;6.812;2022-09-03T05:51:33;613.83;;;589.17;;
17197;SDS011;8715;51.010;6.812;2022-09-03T05:54:00;622.45;;;597.65;;
17197;SDS011;8715;51.010;6.812;2022-09-03T05:56:27;622.90;;;598.05;;
17197;SDS011;8715;51.010;6.812;2022-09-03T05:58:55;658.80;;;632.05;;
17197;SDS011;8715;51.010;6.812;2022-09-03T06:04:07;635.60;;;609.85;;
17197;SDS011;8715;51.010;6.812;2022-09-03T06:06:35;635.25;;;609.40;;
17197;SDS011;8715;51.010;6.812;2022-09-03T06:09:05;682.58;;;654.47;;
17197;SDS011;8715;51.010;6.812;2022-09-03T06:11:32;637.03;;;610.55;;
17197;SDS011;8715;51.010;6.812;2022-09-03T06:13:59;646.65;;;619.63;;
17197;SDS011;8715;51.010;6.812;2022-09-03T06:16:26;637.58;;;611.85;;
17197;SDS011;8715;51.010;6.812;2022-09-03T06:18:53;641.97;;;615.72;;
17197;SDS011;8715;51.010;6.812;2022-09-03T06:21:19;630.38;;;604.72;;
17197;SDS011;8715;51.010;6.812;2022-09-03T06:23:51;640.47;;;614.58;;
17197;SDS011;8715;51.010;6.812;2022-09-03T06:26:18;619.97;;;594.95;;
17197;SDS011;8715;51.010;6.812;2022-09-03T06:28:44;612.83;;;588.58;;
17197;SDS011;8715;51.010;6.812;2022-09-03T06:31:13;587.20;;;564.33;;
17197;SDS011;8715;51.010;6.812;2022-09-03T06:33:40;595.58;;;572.53;;
17197;SDS011;8715;51.010;6.812;2022-09-03T06:36:07;586.20;;;563.40;;
17197;SDS011;8715;51.010;6.812;2022-09-03T06:38:34;570.58;;;547.92;;
17197;SDS011;8715;51.010;6.812;2022-09-03T06:41:01;564.97;;;542.47;;
17197;SDS011;8715;51.010;6.812;2022-09-03T06:43:32;548.72;;;527.42;;
17197;SDS011;8715;51.010;6.812;2022-09-03T06:46:00;563.15;;;541.33;;
17197;SDS011;8715;51.010;6.812;2022-09-03T06:48:30;563.55;;;541.30;;
17197;SDS011;8715;51.010;6.812;2022-09-03T06:53:32;535.72;;;514.72;;
17197;SDS011;8715;51.010;6.812;2022-09-03T06:56:00;544.20;;;523.05;;
17197;SDS011;8715;51.010;6.812;2022-09-03T06:58:36;550.38;;;529.35;;
17197;SDS011;8715;51.010;6.812;2022-09-03T07:01:13;545.13;;;523.97;;
17197;SDS011;8715;51.010;6.812;2022-09-03T07:03:40;544.75;;;523.58;;
17197;SDS011;8715;51.010;6.812;2022-09-03T07:06:11;542.58;;;521.55;;
17197;SDS011;8715;51.010;6.812;2022-09-03T07:08:40;554.13;;;532.60;;
17197;SDS011;8715;51.010;6.812;2022-09-03T07:11:07;543.88;;;522.78;;
17197;SDS011;8715;51.010;6.812;2022-09-03T07:13:34;542.35;;;521.50;;
17197;SDS011;8715;51.010;6.812;2022-09-03T07:16:01;548.22;;;527.00;;
17197;SDS011;8715;51.010;6.812;2022-09-03T07:18:28;560.58;;;538.75;;
17197;SDS011;8715;51.010;6.812;2022-09-03T07:21:01;612.63;;;588.95;;
17197;SDS011;8715;51.010;6.812;2022-09-03T07:23:28;563.08;;;541.17;;
17197;SDS011;8715;51.010;6.812;2022-09-03T07:26:01;574.17;;;551.80;;
17197;SDS011;8715;51.010;6.812;2022-09-03T07:28:28;564.65;;;542.42;;
17197;SDS011;8715;51.010;6.812;2022-09-03T07:30:59;577.97;;;555.72;;
17197;SDS011;8715;51.010;6.812;2022-09-03T07:33:27;567.30;;;545.30;;
17197;SDS011;8715;51.010;6.812;2022-09-03T07:35:53;577.45;;;554.92;;
17197;SDS011;8715;51.010;6.812;2022-09-03T07:38:18;562.50;;;540.37;;
17197;SDS011;8715;51.010;6.812;2022-09-03T07:40:44;567.30;;;545.13;;
17197;SDS011;8715;51.010;6.812;2022-09-03T07:43:10;573.72;;;551.58;;
17197;SDS011;8715;51.010;6.812;2022-09-03T07:45:36;561.40;;;539.78;;
17197;SDS011;8715;51.010;6.812;2022-09-03T07:48:03;572.35;;;549.28;;
17197;SDS011;8715;51.010;6.812;2022-09-03T07:50:29;613.67;;;589.75;;
17197;SDS011;8715;51.010;6.812;2022-09-03T07:52:58;572.80;;;550.20;;
17197;SDS011;8715;51.010;6.812;2022-09-03T07:55:23;565.38;;;543.40;;
17197;SDS011;8715;51.010;6.812;2022-09-03T07:57:53;571.13;;;548.75;;
17197;SDS011;8715;51.010;6.812;2022-09-03T08:00:19;607.53;;;583.90;;
17197;SDS011;8715;51.010;6.812;2022-09-03T08:02:45;565.65;;;544.00;;
17197;SDS011;8715;51.010;6.812;2022-09-03T08:05:10;562.60;;;540.92;;
17197;SDS011;8715;51.010;6.812;2022-09-03T08:07:35;556.22;;;535.05;;
17197;SDS011;8715;51.010;6.812;2022-09-03T08:10:01;558.87;;;537.00;;
17197;SDS011;8715;51.010;6.812;2022-09-03T08:12:26;555.90;;;534.10;;
17197;SDS011;8715;51.010;6.812;2022-09-03T08:14:52;577.75;;;554.33;;
17197;SDS011;8715;51.010;6.812;2022-09-03T08:17:17;562.78;;;540.72;;
17197;SDS011;8715;51.010;6.812;2022-09-03T08:19:43;568.63;;;546.33;;
17197;SDS011;8715;51.010;6.812;2022-09-03T08:22:10;571.75;;;549.88;;
17197;SDS011;8715;51.010;6.812;2022-09-03T08:24:35;582.08;;;559.45;;
17197;SDS011;8715;51.010;6.812;2022-09-03T08:27:01;589.00;;;565.70;;
17197;SDS011;8715;51.010;6.812;2022-09-03T08:29:26;605.72;;;582.10;;
17197;SDS011;8715;51.010;6.812;2022-09-03T08:31:52;606.42;;;582.90;;
17197;SDS011;8715;51.010;6.812;2022-09-03T08:34:17;592.30;;;569.33;;
17197;SDS011;8715;51.010;6.812;2022-09-03T08:36:43;625.17;;;600.28;;
17197;SDS011;8715;51.010;6.812;2022-09-03T08:39:10;611.22;;;587.22;;
17197;SDS011;8715;51.010;6.812;2022-09-03T08:49:55;594.10;;;570.55;;
17197;SDS011;8715;51.010;6.812;2022-09-03T08:52:41;592.15;;;568.88;;
17197;SDS011;8715;51.010;6.812;2022-09-03T08:58:15;638.00;;;612.00;;
17197;SDS011;8715;51.010;6.812;2022-09-03T09:00:50;591.67;;;567.63;;
17197;SDS011;8715;51.010;6.812;2022-09-03T09:13:45;627.40;;;602.63;;
17197;SDS011;8715;51.010;6.812;2022-09-03T09:16:35;571.85;;;549.47;;
17197;SDS011;8715;51.010;6.812;2022-09-03T09:21:39;585.13;;;562.05;;
17197;SDS011;8715;51.010;6.812;2022-09-03T09:24:12;558.70;;;536.42;;
17197;SDS011;8715;51.010;6.812;2022-09-03T09:26:45;581.42;;;558.80;;
17197;SDS011;8715;51.010;6.812;2022-09-03T09:29:11;573.45;;;551.17;;
17197;SDS011;8715;51.010;6.812;2022-09-03T09:31:37;574.15;;;550.85;;
17197;SDS011;8715;51.010;6.812;2022-09-03T09:34:04;576.30;;;553.95;;
17197;SDS011;8715;51.010;6.812;2022-09-03T09:36:31;577.28;;;554.70;;
17197;SDS011;8715;51.010;6.812;2022-09-03T09:39:11;581.60;;;558.83;;
17197;SDS011;8715;51.010;6.812;2022-09-03T09:41:39;577.83;;;555.28;;
17197;SDS011;8715;51.010;6.812;2022-09-03T09:44:05;583.70;;;560.60;;
17197;SDS011;8715;51.010;6.812;2022-09-03T09:46:34;579.83;;;556.67;;
17197;SDS011;8715;51.010;6.812;2022-09-03T09:49:06;576.92;;;554.00;;
17197;SDS011;8715;51.010;6.812;2022-09-03T09:51:42;591.00;;;567.50;;
17197;SDS011;8715;51.010;6.812;2022-09-03T09:54:15;593.08;;;569.72;;
17197;SDS011;8715;51.010;6.812;2022-09-03T09:56:46;599.80;;;576.33;;
17197;SDS011;8715;51.010;6.812;2022-09-03T09:59:22;582.40;;;559.45;;
17197;SDS011;8715;51.010;6.812;2022-09-03T10:01:47;598.38;;;574.83;;
17197;SDS011;8715;51.010;6.812;2022-09-03T10:04:20;589.08;;;565.50;;
17197;SDS011;8715;51.010;6.812;2022-09-03T10:06:55;605.05;;;581.42;;
17197;SDS011;8715;51.010;6.812;2022-09-03T10:14:49;609.30;;;584.85;;
17197;SDS011;8715;51.010;6.812;2022-09-03T10:17:30;596.17;;;572.85;;
17197;SDS011;8715;51.010;6.812;2022-09-03T10:25:37;595.35;;;571.13;;
17197;SDS011;8715;51.010;6.812;2022-09-03T10:28:04;617.28;;;591.85;;
17197;SDS011;8715;51.010;6.812;2022-09-03T10:30:35;660.58;;;634.28;;
17197;SDS011;8715;51.010;6.812;2022-09-03T10:35:51;647.47;;;621.58;;
17197;SDS011;8715;51.010;6.812;2022-09-03T10:38:32;611.78;;;586.55;;
17197;SDS011;8715;51.010;6.812;2022-09-03T10:43:54;605.22;;;581.28;;
17197;SDS011;8715;51.010;6.812;2022-09-03T10:46:26;596.38;;;572.00;;
17197;SDS011;8715;51.010;6.812;2022-09-03T10:48:57;591.33;;;567.67;;
17197;SDS011;8715;51.010;6.812;2022-09-03T10:51:34;589.92;;;566.42;;
17197;SDS011;8715;51.010;6.812;2022-09-03T11:10:18;619.10;;;594.30;;
17197;SDS011;8715;51.010;6.812;2022-09-03T11:15:26;625.65;;;600.58;;
17197;SDS011;8715;51.010;6.812;2022-09-03T11:17:58;626.75;;;601.25;;
17197;SDS011;8715;51.010;6.812;2022-09-03T11:20:26;635.03;;;609.10;;
17197;SDS011;8715;51.010;6.812;2022-09-03T11:22:53;631.33;;;605.67;;
17197;SDS011;8715;51.010;6.812;2022-09-03T11:25:21;676.90;;;649.30;;
17197;SDS011;8715;51.010;6.812;2022-09-03T11:33:27;648.38;;;621.50;;
17197;SDS011;8715;51.010;6.812;2022-09-03T11:35:59;639.83;;;613.22;;
17197;SDS011;8715;51.010;6.812;2022-09-03T11:38:26;640.90;;;613.13;;
17197;SDS011;8715;51.010;6.812;2022-09-03T11:45:48;636.00;;;609.87;;
17197;SDS011;8715;51.010;6.812;2022-09-03T11:48:18;650.88;;;623.30;;
17197;SDS011;8715;51.010;6.812;2022-09-03T11:50:54;630.60;;;605.00;;
17197;SDS011;8715;51.010;6.812;2022-09-03T11:53:24;631.17;;;605.42;;
17197;SDS011;8715;51.010;6.812;2022-09-03T11:56:39;644.03;;;618.08;;
17197;SDS011;8715;51.010;6.812;2022-09-03T11:58:43;635.10;;;608.55;;
17197;SDS011;8715;51.010;6.812;2022-09-03T12:01:12;630.25;;;604.15;;
17197;SDS011;8715;51.010;6.812;2022-09-03T12:19:53;625.50;;;599.55;;
17197;SDS011;8715;51.010;6.812;2022-09-03T12:22:21;612.10;;;586.83;;
17197;SDS011;8715;51.010;6.812;2022-09-03T12:24:49;605.05;;;580.58;;
17197;SDS011;8715;51.010;6.812;2022-09-03T12:27:18;605.38;;;581.08;;
17197;SDS011;8715;51.010;6.812;2022-09-03T12:32:22;624.08;;;598.78;;
17197;SDS011;8715;51.010;6.812;2022-09-03T12:34:48;628.10;;;602.70;;
17197;SDS011;8715;51.010;6.812;2022-09-03T12:37:17;604.67;;;580.60;;
17197;SDS011;8715;51.010;6.812;2022-09-03T12:39:49;613.75;;;588.92;;
17197;SDS011;8715;51.010;6.812;2022-09-03T12:42:19;631.22;;;605.88;;
17197;SDS011;8715;51.010;6.812;2022-09-03T12:44:48;620.10;;;595.10;;
17197;SDS011;8715;51.010;6.812;2022-09-03T12:47:15;606.15;;;581.38;;
17197;SDS011;8715;51.010;6.812;2022-09-03T12:49:42;632.53;;;606.65;;
17197;SDS011;8715;51.010;6.812;2022-09-03T12:52:28;618.33;;;593.60;;
17197;SDS011;8715;51.010;6.812;2022-09-03T12:57:48;619.13;;;593.92;;
17197;SDS011;8715;51.010;6.812;2022-09-03T13:00:36;613.78;;;588.83;;
17197;SDS011;8715;51.010;6.812;2022-09-03T13:03:17;630.40;;;605.03;;
17197;SDS011;8715;51.010;6.812;2022-09-03T13:05:46;636.88;;;610.95;;
17197;SDS011;8715;51.010;6.812;2022-09-03T13:08:19;625.70;;;600.10;;
17197;SDS011;8715;51.010;6.812;2022-09-03T13:10:49;629.00;;;602.67;;
17197;SDS011;8715;51.010;6.812;2022-09-03T13:21:30;654.00;;;627.25;;
17197;SDS011;8715;51.010;6.812;2022-09-03T13:27:03;627.30;;;601.60;;
17197;SDS011;8715;51.010;6.812;2022-09-03T13:32:25;634.65;;;608.38;;
17197;SDS011;8715;51.010;6.812;2022-09-03T13:34:53;634.30;;;608.25;;
17197;SDS011;8715;51.010;6.812;2022-09-03T13:37:26;633.70;;;606.95;;
17197;SDS011;8715;51.010;6.812;2022-09-03T13:44:58;646.13;;;619.42;;
17197;SDS011;8715;51.010;6.812;2022-09-03T13:47:35;630.33;;;603.80;;
17197;SDS011;8715;51.010;6.812;2022-09-03T13:50:24;633.42;;;607.60;;
17197;SDS011;8715;51.010;6.812;2022-09-03T13:53:04;637.67;;;611.65;;
17197;SDS011;8715;51.010;6.812;2022-09-03T13:55:45;633.17;;;607.40;;
17197;SDS011;8715;51.010;6.812;2022-09-03T14:01:05;637.80;;;611.80;;
17197;SDS011;8715;51.010;6.812;2022-09-03T14:09:03;644.65;;;617.97;;
17197;SDS011;8715;51.010;6.812;2022-09-03T14:11:54;638.67;;;612.45;;
17197;SDS011;8715;51.010;6.812;2022-09-03T14:16:57;633.58;;;607.78;;
17197;SDS011;8715;51.010;6.812;2022-09-03T14:19:59;662.25;;;634.95;;
17197;SDS011;8715;51.010;6.812;2022-09-03T14:22:23;654.58;;;627.00;;
17197;SDS011;8715;51.010;6.812;2022-09-03T14:24:52;652.63;;;625.42;;
17197;SDS011;8715;51.010;6.812;2022-09-03T14:27:28;654.28;;;626.97;;
17197;SDS011;8715;51.010;6.812;2022-09-03T14:29:58;646.22;;;619.63;;
17197;SDS011;8715;51.010;6.812;2022-09-03T14:32:29;679.40;;;650.97;;
17197;SDS011;8715;51.010;6.812;2022-09-03T14:35:17;639.00;;;612.33;;
17197;SDS011;8715;51.010;6.812;2022-09-03T14:38:00;646.60;;;619.70;;
17197;SDS011;8715;51.010;6.812;2022-09-03T14:40:45;641.55;;;614.90;;
17197;SDS011;8715;51.010;6.812;2022-09-03T14:54:08;656.83;;;628.78;;
17197;SDS011;8715;51.010;6.812;2022-09-03T15:10:58;656.58;;;628.95;;
17197;SDS011;8715;51.010;6.812;2022-09-03T15:13:29;664.70;;;636.50;;
17197;SDS011;8715;51.010;6.812;2022-09-03T15:21:40;649.38;;;622.00;;
17197;SDS011;8715;51.010;6.812;2022-09-03T15:27:02;649.35;;;622.08;;
17197;SDS011;8715;51.010;6.812;2022-09-03T15:37:31;645.63;;;618.70;;
17197;SDS011;8715;51.010;6.812;2022-09-03T15:42:35;645.95;;;619.30;;
17197;SDS011;8715;51.010;6.812;2022-09-03T15:53:34;688.20;;;659.33;;
17197;SDS011;8715;51.010;6.812;2022-09-03T15:56:17;645.75;;;619.17;;
17197;SDS011;8715;51.010;6.812;2022-09-03T16:15:14;652.80;;;625.55;;
17197;SDS011;8715;51.010;6.812;2022-09-03T16:17:52;634.75;;;608.60;;
17197;SDS011;8715;51.010;6.812;2022-09-03T16:20:36;650.65;;;623.58;;
17197;SDS011;8715;51.010;6.812;2022-09-03T16:23:20;643.80;;;617.35;;
17197;SDS011;8715;51.010;6.812;2022-09-03T16:28:46;644.22;;;616.60;;
17197;SDS011;8715;51.010;6.812;2022-09-03T16:31:18;651.88;;;624.95;;
17197;SDS011;8715;51.010;6.812;2022-09-03T16:34:14;640.33;;;613.75;;
17197;SDS011;8715;51.010;6.812;2022-09-03T16:44:36;636.95;;;611.28;;
17197;SDS011;8715;51.010;6.812;2022-09-03T16:47:20;628.42;;;602.83;;
17197;SDS011;8715;51.010;6.812;2022-09-03T16:50:12;630.38;;;604.63;;
17197;SDS011;8715;51.010;6.812;2022-09-03T17:02:05;633.28;;;607.38;;
17197;SDS011;8715;51.010;6.812;2022-09-03T17:09:46;633.00;;;607.88;;
17197;SDS011;8715;51.010;6.812;2022-09-03T17:13:19;628.80;;;603.17;;
17197;SDS011;8715;51.010;6.812;2022-09-03T17:18:13;639.90;;;613.90;;
17197;SDS011;8715;51.010;6.812;2022-09-03T17:20:47;628.35;;;602.85;;
17197;SDS011;8715;51.010;6.812;2022-09-03T17:31:30;620.90;;;595.83;;
17197;SDS011;8715;51.010;6.812;2022-09-03T17:34:10;620.00;;;594.85;;
17197;SDS011;8715;51.010;6.812;2022-09-03T17:36:37;618.13;;;593.45;;
17197;SDS011;8715;51.010;6.812;2022-09-03T17:47:04;614.65;;;589.63;;
17197;SDS011;8715;51.010;6.812;2022-09-03T17:54:49;606.28;;;582.00;;
17197;SDS011;8715;51.010;6.812;2022-09-03T17:59:58;595.75;;;571.85;;
17197;SDS011;8715;51.010;6.812;2022-09-03T18:05:27;597.88;;;573.92;;
17197;SDS011;8715;51.010;6.812;2022-09-03T18:11:04;593.83;;;570.22;;
17197;SDS011;8715;51.010;6.812;2022-09-03T18:13:38;587.88;;;564.42;;
17197;SDS011;8715;51.010;6.812;2022-09-03T18:16:23;589.00;;;565.33;;
17197;SDS011;8715;51.010;6.812;2022-09-03T18:18:52;586.78;;;563.33;;
17197;SDS011;8715;51.010;6.812;2022-09-03T18:21:22;586.83;;;563.60;;
17197;SDS011;8715;51.010;6.812;2022-09-03T18:27:11;631.17;;;606.08;;
17197;SDS011;8715;51.010;6.812;2022-09-03T18:30:00;577.53;;;554.58;;
17197;SDS011;8715;51.010;6.812;2022-09-03T18:32:47;618.05;;;593.17;;
17197;SDS011;8715;51.010;6.812;2022-09-03T18:35:31;579.47;;;556.78;;
17197;SDS011;8715;51.010;6.812;2022-09-03T18:38:48;576.65;;;553.65;;
17197;SDS011;8715;51.010;6.812;2022-09-03T18:44:28;614.83;;;590.60;;
17197;SDS011;8715;51.010;6.812;2022-09-03T18:47:40;564.88;;;542.55;;
17197;SDS011;8715;51.010;6.812;2022-09-03T18:56:53;536.97;;;515.72;;
17197;SDS011;8715;51.010;6.812;2022-09-03T19:02:51;555.53;;;533.90;;
17197;SDS011;8715;51.010;6.812;2022-09-03T19:12:15;551.08;;;529.60;;
17197;SDS011;8715;51.010;6.812;2022-09-03T19:15:10;563.15;;;541.10;;
17197;SDS011;8715;51.010;6.812;2022-09-03T19:23:53;600.05;;;576.45;;
17197;SDS011;8715;51.010;6.812;2022-09-03T19:26:43;542.53;;;520.78;;
17197;SDS011;8715;51.010;6.812;2022-09-03T19:30:23;539.50;;;518.45;;
17197;SDS011;8715;51.010;6.812;2022-09-03T19:40:11;541.85;;;520.03;;
17197;SDS011;8715;51.010;6.812;2022-09-03T19:42:41;547.13;;;525.58;;
17197;SDS011;8715;51.010;6.812;2022-09-03T19:51:29;539.35;;;517.72;;
17197;SDS011;8715;51.010;6.812;2022-09-03T19:54:15;529.42;;;508.30;;
17197;SDS011;8715;51.010;6.812;2022-09-03T19:57:03;538.13;;;516.83;;
17197;SDS011;8715;51.010;6.812;2022-09-03T19:59:47;534.55;;;513.47;;
17197;SDS011;8715;51.010;6.812;2022-09-03T20:02:32;593.10;;;569.70;;
17197;SDS011;8715;51.010;6.812;2022-09-03T20:05:18;524.63;;;503.55;;
17197;SDS011;8715;51.010;6.812;2022-09-03T20:08:03;534.83;;;513.35;;
17197;SDS011;8715;51.010;6.812;2022-09-03T20:10:49;536.22;;;512.80;;
17197;SDS011;8715;51.010;6.812;2022-09-03T20:13:17;530.40;;;509.02;;
17197;SDS011;8715;51.010;6.812;2022-09-03T20:16:01;538.67;;;517.40;;
17197;SDS011;8715;51.010;6.812;2022-09-03T20:26:26;523.78;;;502.75;;
17197;SDS011;8715;51.010;6.812;2022-09-03T20:28:59;512.20;;;491.60;;
17197;SDS011;8715;51.010;6.812;2022-09-03T20:31:30;512.90;;;492.58;;